createdAt,value
2023-12-15T00:00:20.071Z,15.48
2023-12-15T00:02:47.103Z,14.73
2023-12-15T00:05:14.458Z,17.15
2023-12-15T00:07:41.215Z,16.73
2023-12-15T00:10:08.775Z,16.45
2023-12-15T00:12:35.637Z,16.23
2023-12-15T00:15:02.478Z,17.30
2023-12-15T00:17:29.325Z,15.70
2023-12-15T00:19:56.130Z,16.17
2023-12-15T00:22:22.934Z,16.05
2023-12-15T00:24:49.674Z,15.90
2023-12-15T00:27:16.414Z,16.38
2023-12-15T00:29:43.216Z,15.88
2023-12-15T00:32:10.874Z,16.42
2023-12-15T00:34:37.831Z,15.50
2023-12-15T00:37:04.570Z,16.20
2023-12-15T00:39:31.994Z,16.50
2023-12-15T00:41:59.102Z,16.77
2023-12-15T00:44:26.306Z,15.90
2023-12-15T00:46:53.240Z,16.48
2023-12-15T00:49:20.018Z,17.48
2023-12-15T00:51:46.748Z,16.33
2023-12-15T00:54:13.775Z,15.30
2023-12-15T00:56:40.553Z,16.30
2023-12-15T00:59:07.231Z,15.82
2023-12-15T01:01:33.970Z,15.00
2023-12-15T01:04:00.831Z,16.83
2023-12-15T01:06:27.906Z,17.13
2023-12-15T01:08:54.712Z,15.95
2023-12-15T01:11:21.495Z,15.77
2023-12-15T01:13:48.293Z,16.20
2023-12-15T01:16:14.978Z,16.67
2023-12-15T01:18:41.787Z,15.25
2023-12-15T01:21:08.598Z,15.52
2023-12-15T01:23:38.972Z,15.77
2023-12-15T01:26:06.077Z,17.90
2023-12-15T01:28:32.804Z,18.63
2023-12-15T01:31:02.572Z,18.15
2023-12-15T01:33:30.760Z,19.02
2023-12-15T01:35:57.788Z,20.60
2023-12-15T01:38:24.718Z,21.23
2023-12-15T01:40:51.673Z,19.77
2023-12-15T01:43:18.643Z,20.75
2023-12-15T01:45:45.479Z,21.13
2023-12-15T01:48:12.469Z,20.63
2023-12-15T01:50:40.050Z,21.08
2023-12-15T01:53:06.905Z,20.98
2023-12-15T01:55:33.734Z,21.85
2023-12-15T01:58:00.504Z,23.15
2023-12-15T02:00:27.559Z,23.08
2023-12-15T02:02:54.401Z,23.30
2023-12-15T02:05:21.296Z,22.90
2023-12-15T02:07:48.032Z,21.95
2023-12-15T02:10:14.728Z,22.88
2023-12-15T02:12:41.474Z,24.02
2023-12-15T02:15:10.654Z,23.40
2023-12-15T02:17:38.588Z,22.30
2023-12-15T02:20:07.501Z,23.27
2023-12-15T02:22:34.418Z,22.88
2023-12-15T02:25:01.349Z,21.80
2023-12-15T02:27:28.186Z,23.98
2023-12-15T02:29:54.946Z,23.27
2023-12-15T02:32:21.953Z,23.90
2023-12-15T02:34:48.944Z,23.83
2023-12-15T02:37:15.815Z,23.85
2023-12-15T02:39:42.506Z,23.23
2023-12-15T02:42:09.447Z,22.60
2023-12-15T02:44:36.235Z,23.88
2023-12-15T02:47:03.396Z,22.80
2023-12-15T02:49:30.259Z,25.15
2023-12-15T02:51:57.811Z,23.45
2023-12-15T02:54:24.518Z,22.55
2023-12-15T02:56:51.255Z,22.67
2023-12-15T02:59:18.030Z,23.95
2023-12-15T03:01:44.826Z,24.67
2023-12-15T03:04:11.560Z,26.02
2023-12-15T03:06:38.218Z,25.83
2023-12-15T03:09:05.101Z,24.08
2023-12-15T03:11:32.046Z,26.58
2023-12-15T03:13:58.794Z,24.90
2023-12-15T03:16:25.593Z,24.95
2023-12-15T03:18:52.953Z,27.40
2023-12-15T03:21:19.723Z,25.60
2023-12-15T03:23:46.560Z,27.67
2023-12-15T03:26:14.569Z,28.05
2023-12-15T03:28:41.326Z,26.08
2023-12-15T03:31:08.444Z,27.73
2023-12-15T03:33:38.995Z,29.08
2023-12-15T03:36:06.775Z,28.85
2023-12-15T03:38:35.649Z,28.58
2023-12-15T03:41:02.752Z,29.02
2023-12-15T03:43:29.497Z,30.58
2023-12-15T03:45:56.306Z,28.45
2023-12-15T03:48:23.065Z,28.80
2023-12-15T03:50:49.776Z,31.48
2023-12-15T03:53:16.604Z,29.13
2023-12-15T03:55:43.395Z,31.27
2023-12-15T03:58:10.338Z,30.67
2023-12-15T04:00:37.630Z,30.60
2023-12-15T04:03:04.375Z,30.27
2023-12-15T04:05:31.137Z,31.90
2023-12-15T04:07:58.074Z,30.52
2023-12-15T04:10:25.292Z,31.38
2023-12-15T04:12:52.175Z,33.55
2023-12-15T04:15:20.495Z,31.10
2023-12-15T04:17:47.517Z,31.27
2023-12-15T04:20:14.759Z,32.33
2023-12-15T04:22:41.767Z,32.97
2023-12-15T04:25:08.867Z,34.17
2023-12-15T04:27:39.181Z,31.45
2023-12-15T04:30:09.185Z,35.13
2023-12-15T04:32:36.154Z,32.00
2023-12-15T04:35:03.092Z,32.90
2023-12-15T04:37:30.404Z,35.40
2023-12-15T04:39:57.634Z,32.90
2023-12-15T04:42:24.604Z,33.47
2023-12-15T04:44:51.918Z,35.58
2023-12-15T04:47:18.793Z,35.47
2023-12-15T04:49:45.757Z,32.35
2023-12-15T04:52:12.703Z,34.38
2023-12-15T04:54:39.533Z,36.28
2023-12-15T04:57:06.368Z,35.53
2023-12-15T04:59:40.859Z,35.55
2023-12-15T05:02:08.325Z,34.88
2023-12-15T05:04:37.237Z,36.80
2023-12-15T05:07:05.402Z,35.25
2023-12-15T05:09:32.297Z,35.72
2023-12-15T05:11:59.172Z,37.50
2023-12-15T05:14:26.103Z,39.65
2023-12-15T05:16:53.012Z,37.45
2023-12-15T05:19:19.994Z,38.10
2023-12-15T05:21:46.927Z,37.95
2023-12-15T05:24:14.185Z,36.90
2023-12-15T05:26:41.052Z,38.17
2023-12-15T05:29:08.045Z,38.83
2023-12-15T05:31:34.978Z,38.58
2023-12-15T05:34:02.099Z,37.17
2023-12-15T05:36:29.234Z,36.85
2023-12-15T05:38:56.201Z,38.25
2023-12-15T05:41:23.700Z,36.47
2023-12-15T05:43:50.727Z,36.15
2023-12-15T05:46:19.003Z,34.72
2023-12-15T05:48:46.003Z,36.30
2023-12-15T05:51:12.877Z,38.15
2023-12-15T05:53:48.410Z,38.28
2023-12-15T05:56:22.193Z,38.95
2023-12-15T05:58:50.197Z,37.42
2023-12-15T06:01:17.072Z,34.92
2023-12-15T06:03:43.932Z,38.22
2023-12-15T06:06:14.086Z,36.80
2023-12-15T06:08:41.318Z,36.28
2023-12-15T06:11:08.165Z,34.85
2023-12-15T06:13:35.058Z,36.00
2023-12-15T06:16:02.017Z,34.78
2023-12-15T06:18:29.162Z,35.67
2023-12-15T06:20:56.044Z,34.22
2023-12-15T06:23:22.993Z,36.60
2023-12-15T06:25:50.080Z,34.95
2023-12-15T06:28:16.910Z,34.25
2023-12-15T06:30:43.952Z,36.28
2023-12-15T06:33:10.930Z,35.47
2023-12-15T06:35:38.050Z,33.63
2023-12-15T06:38:05.202Z,35.47
2023-12-15T06:40:32.748Z,34.85
2023-12-15T06:42:59.769Z,35.30
2023-12-15T06:45:26.604Z,34.92
2023-12-15T06:47:53.611Z,35.67
2023-12-15T06:50:20.607Z,32.63
2023-12-15T06:52:50.314Z,33.05
2023-12-15T06:55:17.338Z,33.92
2023-12-15T06:57:44.274Z,33.33
2023-12-15T07:00:12.184Z,32.20
2023-12-15T07:02:39.488Z,30.98
2023-12-15T07:05:07.126Z,30.70
2023-12-15T07:07:34.502Z,33.15
2023-12-15T07:10:01.632Z,30.40
2023-12-15T07:12:28.449Z,31.98
2023-12-15T07:14:55.928Z,30.13
2023-12-15T07:17:22.929Z,29.77
2023-12-15T07:19:49.914Z,28.88
2023-12-15T07:22:18.820Z,29.48
2023-12-15T07:24:47.160Z,28.58
2023-12-15T07:27:15.547Z,30.88
2023-12-15T07:29:42.586Z,29.35
2023-12-15T07:32:09.563Z,27.35
2023-12-15T07:34:36.643Z,28.77
2023-12-15T07:37:03.786Z,29.45
2023-12-15T07:39:30.606Z,27.52
2023-12-15T07:41:57.532Z,30.08
2023-12-15T07:44:24.347Z,28.27
2023-12-15T07:46:55.158Z,29.23
2023-12-15T07:49:22.844Z,25.67
2023-12-15T07:51:50.834Z,29.17
2023-12-15T07:54:19.313Z,28.42
2023-12-15T07:56:46.136Z,27.10
2023-12-15T07:59:14.507Z,27.65
2023-12-15T08:01:41.820Z,28.30
2023-12-15T08:04:11.456Z,28.50
2023-12-15T08:06:39.156Z,29.08
2023-12-15T08:09:06.141Z,31.48
2023-12-15T08:11:34.059Z,28.98
2023-12-15T08:14:01.202Z,30.63
2023-12-15T08:16:28.140Z,30.48
2023-12-15T08:18:55.037Z,29.05
2023-12-15T08:21:22.040Z,28.77
2023-12-15T08:23:48.860Z,28.98
2023-12-15T08:26:24.511Z,30.08
2023-12-15T08:28:51.623Z,29.45
2023-12-15T08:31:18.392Z,29.30
2023-12-15T08:33:45.304Z,31.13
2023-12-15T08:36:12.324Z,28.75
2023-12-15T08:38:39.395Z,28.75
2023-12-15T08:41:07.630Z,29.83
2023-12-15T08:43:34.953Z,28.90
2023-12-15T08:46:02.492Z,28.70
2023-12-15T08:48:29.451Z,28.45
2023-12-15T08:50:56.351Z,29.08
2023-12-15T08:53:23.661Z,29.52
2023-12-15T08:55:50.605Z,29.55
2023-12-15T08:58:17.551Z,27.65
2023-12-15T09:00:44.442Z,27.65
2023-12-15T09:03:11.511Z,26.65
2023-12-15T09:05:58.127Z,27.80
2023-12-15T09:08:28.606Z,26.00
2023-12-15T09:10:55.972Z,27.73
2023-12-15T09:13:22.883Z,27.52
2023-12-15T09:15:50.377Z,26.35
2023-12-15T09:18:17.637Z,25.38
2023-12-15T09:20:44.545Z,27.58
2023-12-15T09:23:11.632Z,27.35
2023-12-15T09:25:38.679Z,25.35
2023-12-15T09:28:06.677Z,25.88
2023-12-15T09:30:34.714Z,27.23
2023-12-15T09:33:01.835Z,25.27
2023-12-15T09:35:29.420Z,25.83
2023-12-15T09:37:56.406Z,23.75
2023-12-15T09:40:24.790Z,24.70
2023-12-15T09:42:51.852Z,25.25
2023-12-15T09:45:19.155Z,26.15
2023-12-15T09:47:49.679Z,25.33
2023-12-15T09:50:18.324Z,25.75
2023-12-15T09:52:46.914Z,24.02
2023-12-15T09:55:13.793Z,23.90
2023-12-15T09:57:41.836Z,23.27
2023-12-15T10:00:09.213Z,24.50
2023-12-15T10:02:42.273Z,25.98
2023-12-15T10:05:10.889Z,24.05
2023-12-15T10:07:38.234Z,23.13
2023-12-15T10:10:05.394Z,22.95
2023-12-15T10:12:35.067Z,21.45
2023-12-15T10:15:02.081Z,20.88
2023-12-15T10:17:29.351Z,21.48
2023-12-15T10:20:07.684Z,21.38
2023-12-15T10:22:34.792Z,21.35
2023-12-15T10:25:02.100Z,20.25
2023-12-15T10:27:29.147Z,21.90
2023-12-15T10:29:56.288Z,20.38
2023-12-15T10:32:23.731Z,21.42
2023-12-15T10:34:51.898Z,19.80
2023-12-15T10:37:18.975Z,19.73
2023-12-15T10:39:47.987Z,20.35
2023-12-15T10:42:15.663Z,19.02
2023-12-15T10:44:44.048Z,17.83
2023-12-15T10:47:11.454Z,17.13
2023-12-15T10:49:47.224Z,19.02
2023-12-15T10:52:18.185Z,17.17
2023-12-15T10:54:47.058Z,15.95
2023-12-15T10:57:14.584Z,15.20
2023-12-15T10:59:42.070Z,13.88
2023-12-15T11:02:14.334Z,14.38
2023-12-15T11:04:41.742Z,15.45
2023-12-15T11:07:10.229Z,13.35
2023-12-15T11:09:46.121Z,13.00
2023-12-15T11:12:30.045Z,12.25
2023-12-15T11:15:04.841Z,13.82
2023-12-15T11:17:32.934Z,15.85
2023-12-15T11:20:11.956Z,13.48
2023-12-15T11:22:58.667Z,13.07
2023-12-15T11:25:27.695Z,13.30
2023-12-15T11:28:09.504Z,12.68
2023-12-15T11:30:43.088Z,11.98
2023-12-15T11:33:42.202Z,13.13
2023-12-15T11:36:11.498Z,11.65
2023-12-15T11:38:39.648Z,13.15
2023-12-15T11:41:08.528Z,13.60
2023-12-15T11:43:39.272Z,11.98
2023-12-15T11:46:06.693Z,10.75
2023-12-15T11:48:37.111Z,12.10
2023-12-15T11:51:05.098Z,10.38
2023-12-15T11:53:34.370Z,9.90
2023-12-15T11:56:02.851Z,9.02
2023-12-15T11:58:29.930Z,9.93
2023-12-15T12:00:57.086Z,10.35
2023-12-15T12:03:24.259Z,10.07
2023-12-15T12:05:56.199Z,10.10
2023-12-15T12:08:24.102Z,8.88
2023-12-15T12:10:55.396Z,9.52
2023-12-15T12:13:30.436Z,9.18
2023-12-15T12:15:57.226Z,9.02
2023-12-15T12:18:26.358Z,9.77
2023-12-15T12:21:03.824Z,8.88
2023-12-15T12:23:39.913Z,8.18
2023-12-15T12:26:10.926Z,9.52
2023-12-15T12:28:49.082Z,9.77
2023-12-15T12:31:16.749Z,9.90
2023-12-15T12:33:44.159Z,9.18
2023-12-15T12:36:11.373Z,9.07
2023-12-15T12:38:38.284Z,8.30
2023-12-15T12:41:07.270Z,7.43
2023-12-15T12:43:34.998Z,9.05
2023-12-15T12:46:02.329Z,7.82
2023-12-15T12:48:31.534Z,9.07
2023-12-15T12:50:59.348Z,7.93
2023-12-15T12:53:26.724Z,8.57
2023-12-15T12:55:53.734Z,8.65
2023-12-15T12:58:20.420Z,8.57
2023-12-15T13:00:52.642Z,8.15
2023-12-15T13:03:20.547Z,7.63
2023-12-15T13:05:47.654Z,7.03
2023-12-15T13:08:15.321Z,7.68
2023-12-15T13:10:42.448Z,7.35
2023-12-15T13:13:09.797Z,6.38
2023-12-15T13:15:36.641Z,7.05
2023-12-15T13:18:03.782Z,7.75
2023-12-15T13:20:30.815Z,8.18
2023-12-15T13:22:58.876Z,7.75
2023-12-15T13:25:26.703Z,7.57
2023-12-15T13:27:53.697Z,6.93
2023-12-15T13:30:25.208Z,6.88
2023-12-15T13:32:52.205Z,7.37
2023-12-15T13:35:19.278Z,6.50
2023-12-15T13:37:46.732Z,6.13
2023-12-15T13:40:13.911Z,5.88
2023-12-15T13:42:41.713Z,6.22
2023-12-15T13:45:09.124Z,6.85
2023-12-15T13:47:36.142Z,6.35
2023-12-15T13:50:03.689Z,7.13
2023-12-15T13:52:32.058Z,6.07
2023-12-15T13:54:59.038Z,7.60
2023-12-15T13:57:27.205Z,6.97
2023-12-15T13:59:54.017Z,7.45
2023-12-15T14:02:20.827Z,7.20
2023-12-15T14:04:47.593Z,6.60
2023-12-15T14:07:15.285Z,6.53
2023-12-15T14:09:45.845Z,5.80
2023-12-15T14:12:12.670Z,7.35
2023-12-15T14:14:39.445Z,7.07
2023-12-15T14:17:07.298Z,6.53
2023-12-15T14:19:34.189Z,6.20
2023-12-15T14:22:00.969Z,8.23
2023-12-15T14:24:27.690Z,7.10
2023-12-15T14:26:55.580Z,8.02
2023-12-15T14:29:22.735Z,6.20
2023-12-15T14:31:49.584Z,8.20
2023-12-15T14:34:16.559Z,7.35
2023-12-15T14:36:43.954Z,6.85
2023-12-15T14:39:10.772Z,7.50
2023-12-15T14:41:37.818Z,8.05
2023-12-15T14:44:05.634Z,7.25
2023-12-15T14:46:33.991Z,6.68
2023-12-15T14:49:01.338Z,6.32
2023-12-15T14:51:28.184Z,6.35
2023-12-15T14:53:55.122Z,6.35
2023-12-15T14:56:22.733Z,6.22
2023-12-15T14:58:49.607Z,7.78
2023-12-15T15:01:19.542Z,6.35
2023-12-15T15:03:48.106Z,6.60
2023-12-15T15:06:27.116Z,7.68
2023-12-15T15:09:02.736Z,6.55
2023-12-15T15:11:29.670Z,6.03
2023-12-15T15:13:56.980Z,6.53
2023-12-15T15:16:23.785Z,6.05
2023-12-15T15:18:50.658Z,5.57
2023-12-15T15:21:17.952Z,6.28
2023-12-15T15:23:45.010Z,5.22
2023-12-15T15:26:11.990Z,5.38
2023-12-15T15:28:38.848Z,7.38
2023-12-15T15:31:06.066Z,6.03
2023-12-15T15:33:33.361Z,6.32
2023-12-15T15:36:01.435Z,7.10
2023-12-15T15:38:28.424Z,5.47
2023-12-15T15:40:55.147Z,5.95
2023-12-15T15:43:22.100Z,5.95
2023-12-15T15:45:49.105Z,6.20
2023-12-15T15:48:16.165Z,6.65
2023-12-15T15:50:43.184Z,5.28
2023-12-15T15:53:10.150Z,5.88
2023-12-15T15:55:36.955Z,5.45
2023-12-15T15:58:04.210Z,5.25
2023-12-15T16:00:31.042Z,5.55
2023-12-15T16:02:57.901Z,5.63
2023-12-15T16:05:25.294Z,5.53
2023-12-15T16:07:52.533Z,5.85
2023-12-15T16:10:19.532Z,6.50
2023-12-15T16:12:46.594Z,5.47
2023-12-15T16:15:13.488Z,5.88
2023-12-15T16:17:41.540Z,5.88
2023-12-15T16:20:10.036Z,5.25
2023-12-15T16:22:36.964Z,4.97
2023-12-15T16:25:04.170Z,6.05
2023-12-15T16:27:31.133Z,6.00
2023-12-15T16:29:59.621Z,5.75
2023-12-15T16:32:29.491Z,5.88
2023-12-15T16:34:57.262Z,5.28
2023-12-15T16:37:24.429Z,5.63
2023-12-15T16:39:52.951Z,5.25
2023-12-15T16:42:21.145Z,6.32
2023-12-15T16:44:53.013Z,4.47
2023-12-15T16:47:19.730Z,5.77
2023-12-15T16:49:46.801Z,5.75
2023-12-15T16:52:14.648Z,6.40
2023-12-15T16:54:41.443Z,7.15
2023-12-15T16:57:08.203Z,6.35
2023-12-15T16:59:39.856Z,5.65
2023-12-15T17:02:07.870Z,5.88
2023-12-15T17:04:35.058Z,6.82
2023-12-15T17:07:01.840Z,5.30
2023-12-15T17:09:31.388Z,5.90
2023-12-15T17:12:00.069Z,4.82
2023-12-15T17:14:27.375Z,4.63
2023-12-15T17:16:54.210Z,5.40
2023-12-15T17:19:21.441Z,7.07
2023-12-15T17:21:48.290Z,5.55
2023-12-15T17:24:15.625Z,5.18
2023-12-15T17:26:42.563Z,5.97
2023-12-15T17:29:09.336Z,6.20
2023-12-15T17:31:36.106Z,4.70
2023-12-15T17:34:04.266Z,5.30
2023-12-15T17:36:31.053Z,5.45
2023-12-15T17:38:57.729Z,5.45
2023-12-15T17:41:24.504Z,5.03
2023-12-15T17:43:51.329Z,7.30
2023-12-15T17:46:31.199Z,4.78
2023-12-15T17:48:59.190Z,5.10
2023-12-15T17:51:26.820Z,6.47
2023-12-15T17:53:53.791Z,4.80
2023-12-15T17:56:20.697Z,5.03
2023-12-15T17:58:47.544Z,5.28
2023-12-15T18:01:14.639Z,5.90
2023-12-15T18:03:41.991Z,6.07
2023-12-15T18:06:09.006Z,5.50
2023-12-15T18:08:36.535Z,5.45
2023-12-15T18:11:03.573Z,6.40
2023-12-15T18:13:30.317Z,6.50
2023-12-15T18:15:59.912Z,6.75
2023-12-15T18:18:27.250Z,6.18
2023-12-15T18:20:54.096Z,6.70
2023-12-15T18:23:20.854Z,6.50
2023-12-15T18:25:47.641Z,5.40
2023-12-15T18:28:20.470Z,6.75
2023-12-15T18:30:52.642Z,6.35
2023-12-15T18:33:20.000Z,6.00
2023-12-15T18:35:47.628Z,4.82
2023-12-15T18:38:14.405Z,6.43
2023-12-15T18:40:43.577Z,6.30
2023-12-15T18:43:10.620Z,6.47
2023-12-15T18:45:37.863Z,6.07
2023-12-15T18:48:05.451Z,6.88
2023-12-15T18:50:32.319Z,6.45
2023-12-15T18:52:59.127Z,5.88
2023-12-15T18:55:26.149Z,5.32
2023-12-15T18:57:53.341Z,5.82
2023-12-15T19:00:22.585Z,5.57
2023-12-15T19:02:51.200Z,5.70
2023-12-15T19:05:18.959Z,6.15
2023-12-15T19:07:47.055Z,5.22
2023-12-15T19:10:14.773Z,5.47
2023-12-15T19:12:46.097Z,4.80
2023-12-15T19:15:13.419Z,5.45
2023-12-15T19:17:40.385Z,6.10
2023-12-15T19:20:08.702Z,5.22
2023-12-15T19:22:35.671Z,6.05
2023-12-15T19:25:02.597Z,5.38
2023-12-15T19:27:29.837Z,5.72
2023-12-15T19:29:56.686Z,4.72
2023-12-15T19:32:24.178Z,5.03
2023-12-15T19:34:51.929Z,5.28
2023-12-15T19:37:19.117Z,5.90
2023-12-15T19:39:46.100Z,4.90
2023-12-15T19:42:12.889Z,5.07
2023-12-15T19:44:42.171Z,4.88
2023-12-15T19:47:09.554Z,5.38
2023-12-15T19:49:36.333Z,5.20
2023-12-15T19:52:03.184Z,4.80
2023-12-15T19:54:29.943Z,5.10
2023-12-15T19:56:56.642Z,5.38
2023-12-15T19:59:23.857Z,5.18
2023-12-15T20:01:50.991Z,5.80
2023-12-15T20:04:17.846Z,5.88
2023-12-15T20:06:45.791Z,4.93
2023-12-15T20:09:12.475Z,5.15
2023-12-15T20:11:39.217Z,5.22
2023-12-15T20:14:07.311Z,5.03
2023-12-15T20:16:35.183Z,5.03
2023-12-15T20:19:02.592Z,4.85
2023-12-15T20:21:29.969Z,5.20
2023-12-15T20:23:57.438Z,4.60
2023-12-15T20:26:24.376Z,4.68
2023-12-15T20:28:51.136Z,4.68
2023-12-15T20:31:18.304Z,4.90
2023-12-15T20:33:45.535Z,4.28
2023-12-15T20:36:20.928Z,5.47
2023-12-15T20:38:48.338Z,7.10
2023-12-15T20:41:20.030Z,5.10
2023-12-15T20:43:49.979Z,4.93
2023-12-15T20:46:17.074Z,5.55
2023-12-15T20:48:44.576Z,6.43
2023-12-15T20:51:22.968Z,4.88
2023-12-15T20:53:49.844Z,5.13
2023-12-15T20:56:31.829Z,5.13
2023-12-15T20:58:59.516Z,6.53
2023-12-15T21:01:26.777Z,3.90
2023-12-15T21:03:54.296Z,5.82
2023-12-15T21:06:25.694Z,5.50
2023-12-15T21:08:53.090Z,6.38
2023-12-15T21:11:21.233Z,5.13
2023-12-15T21:13:48.098Z,4.63
2023-12-15T21:16:25.436Z,5.00
2023-12-15T21:18:52.984Z,4.85
2023-12-15T21:21:30.779Z,5.18
2023-12-15T21:23:57.834Z,6.38
2023-12-15T21:26:24.520Z,4.78
2023-12-15T21:28:51.313Z,4.47
2023-12-15T21:31:18.182Z,4.13
2023-12-15T21:33:45.122Z,4.80
2023-12-15T21:36:11.947Z,5.53
2023-12-15T21:38:39.318Z,5.50
2023-12-15T21:41:06.614Z,4.63
2023-12-15T21:43:33.361Z,4.97
2023-12-15T21:46:00.317Z,5.28
2023-12-15T21:48:27.236Z,5.90
2023-12-15T21:50:54.116Z,4.80
2023-12-15T21:53:20.870Z,4.78
2023-12-15T21:55:48.376Z,4.30
2023-12-15T21:58:15.699Z,5.45
2023-12-15T22:00:48.781Z,4.25
2023-12-15T22:03:15.746Z,4.35
2023-12-15T22:05:48.804Z,5.55
2023-12-15T22:08:26.214Z,5.03
2023-12-15T22:10:55.425Z,5.55
2023-12-15T22:13:22.263Z,5.38
2023-12-15T22:15:54.933Z,5.60
2023-12-15T22:18:23.664Z,4.80
2023-12-15T22:20:52.757Z,5.25
2023-12-15T22:23:19.717Z,4.80
2023-12-15T22:25:46.499Z,4.68
2023-12-15T22:28:17.528Z,5.63
2023-12-15T22:30:44.981Z,5.20
2023-12-15T22:33:12.046Z,4.60
2023-12-15T22:35:39.984Z,4.97
2023-12-15T22:38:07.360Z,4.13
2023-12-15T22:40:34.363Z,4.45
2023-12-15T22:43:02.235Z,4.47
2023-12-15T22:45:32.267Z,4.32
2023-12-15T22:47:59.079Z,4.00
2023-12-15T22:50:29.046Z,4.30
2023-12-15T22:52:55.831Z,4.60
2023-12-15T22:55:22.705Z,5.30
2023-12-15T22:57:52.831Z,3.85
2023-12-15T23:00:22.533Z,4.53
2023-12-15T23:02:49.372Z,4.22
2023-12-15T23:05:16.351Z,4.40
2023-12-15T23:07:43.207Z,4.65
2023-12-15T23:10:10.224Z,4.15
2023-12-15T23:12:37.020Z,4.10
2023-12-15T23:15:10.803Z,4.05
2023-12-15T23:17:42.405Z,4.10
2023-12-15T23:20:09.701Z,4.30
2023-12-15T23:22:36.943Z,4.13
2023-12-15T23:25:04.063Z,4.65
2023-12-15T23:27:30.844Z,4.22
2023-12-15T23:29:57.643Z,4.40
2023-12-15T23:32:24.399Z,4.28
2023-12-15T23:34:51.186Z,3.83
2023-12-15T23:37:19.470Z,4.28
2023-12-15T23:39:46.412Z,4.18
2023-12-15T23:42:13.252Z,3.85
2023-12-15T23:44:40.395Z,3.67
2023-12-15T23:47:07.331Z,4.03
2023-12-15T23:49:37.114Z,4.45
2023-12-15T23:52:05.571Z,4.32
2023-12-15T23:54:32.400Z,3.75
2023-12-15T23:56:59.231Z,4.40
2023-12-15T23:59:25.935Z,4.03
